sensor_id;sensor_type;location;lat;lon;timestamp;temperature;humidity
21891;DHT22;11110;52.386;16.940;2022-10-22T00:01:49;27.20;47.60
21891;DHT22;11110;52.386;16.940;2022-10-22T00:04:17;27.20;47.70
21891;DHT22;11110;52.386;16.940;2022-10-22T00:06:46;27.20;47.70
21891;DHT22;11110;52.386;16.940;2022-10-22T00:09:14;27.20;47.70
21891;DHT22;11110;52.386;16.940;2022-10-22T00:11:43;27.20;47.80
21891;DHT22;11110;52.386;16.940;2022-10-22T00:14:11;27.20;47.80
21891;DHT22;11110;52.386;16.940;2022-10-22T00:16:39;27.20;47.80
21891;DHT22;11110;52.386;16.940;2022-10-22T00:19:09;27.20;47.80
21891;DHT22;11110;52.386;16.940;2022-10-22T00:21:39;27.20;47.70
21891;DHT22;11110;52.386;16.940;2022-10-22T00:24:07;27.20;47.80
21891;DHT22;11110;52.386;16.940;2022-10-22T00:26:36;27.20;47.80
21891;DHT22;11110;52.386;16.940;2022-10-22T00:29:05;27.20;47.80
21891;DHT22;11110;52.386;16.940;2022-10-22T00:31:34;27.20;47.80
21891;DHT22;11110;52.386;16.940;2022-10-22T00:34:03;27.20;47.80
21891;DHT22;11110;52.386;16.940;2022-10-22T00:36:32;27.20;47.70
21891;DHT22;11110;52.386;16.940;2022-10-22T00:39:01;27.20;47.70
21891;DHT22;11110;52.386;16.940;2022-10-22T00:41:29;27.20;47.70
21891;DHT22;11110;52.386;16.940;2022-10-22T00:43:59;27.20;47.80
21891;DHT22;11110;52.386;16.940;2022-10-22T00:46:27;27.20;48.40
21891;DHT22;11110;52.386;16.940;2022-10-22T00:48:59;27.20;47.70
21891;DHT22;11110;52.386;16.940;2022-10-22T00:51:33;27.20;47.80
21891;DHT22;11110;52.386;16.940;2022-10-22T00:54:04;27.20;47.80
21891;DHT22;11110;52.386;16.940;2022-10-22T00:56:34;27.20;47.70
21891;DHT22;11110;52.386;16.940;2022-10-22T00:59:03;27.20;47.70
21891;DHT22;11110;52.386;16.940;2022-10-22T01:01:32;27.10;47.70
21891;DHT22;11110;52.386;16.940;2022-10-22T01:04:00;27.20;47.70
21891;DHT22;11110;52.386;16.940;2022-10-22T01:06:31;27.20;47.60
21891;DHT22;11110;52.386;16.940;2022-10-22T01:09:08;27.20;47.70
21891;DHT22;11110;52.386;16.940;2022-10-22T01:11:49;27.20;47.70
21891;DHT22;11110;52.386;16.940;2022-10-22T01:14:23;27.20;47.70
21891;DHT22;11110;52.386;16.940;2022-10-22T01:16:58;27.20;47.80
21891;DHT22;11110;52.386;16.940;2022-10-22T01:19:45;27.20;47.70
21891;DHT22;11110;52.386;16.940;2022-10-22T01:22:19;27.20;47.70
21891;DHT22;11110;52.386;16.940;2022-10-22T01:24:58;27.20;47.80
21891;DHT22;11110;52.386;16.940;2022-10-22T01:27:41;27.20;47.70
21891;DHT22;11110;52.386;16.940;2022-10-22T01:30:15;27.20;47.70
21891;DHT22;11110;52.386;16.940;2022-10-22T01:32:48;27.20;47.70
21891;DHT22;11110;52.386;16.940;2022-10-22T01:35:21;27.20;47.60
21891;DHT22;11110;52.386;16.940;2022-10-22T01:37:53;27.20;47.70
21891;DHT22;11110;52.386;16.940;2022-10-22T01:40:24;27.20;47.60
21891;DHT22;11110;52.386;16.940;2022-10-22T01:42:55;27.20;47.50
21891;DHT22;11110;52.386;16.940;2022-10-22T01:45:25;27.20;47.70
21891;DHT22;11110;52.386;16.940;2022-10-22T01:47:59;27.20;47.60
21891;DHT22;11110;52.386;16.940;2022-10-22T01:53:31;27.20;47.50
21891;DHT22;11110;52.386;16.940;2022-10-22T01:56:12;27.20;47.60
21891;DHT22;11110;52.386;16.940;2022-10-22T01:58:49;27.20;47.60
21891;DHT22;11110;52.386;16.940;2022-10-22T02:01:29;27.20;47.60
21891;DHT22;11110;52.386;16.940;2022-10-22T02:04:02;27.20;47.60
21891;DHT22;11110;52.386;16.940;2022-10-22T02:06:33;27.20;47.60
21891;DHT22;11110;52.386;16.940;2022-10-22T02:09:03;27.20;47.60
21891;DHT22;11110;52.386;16.940;2022-10-22T02:11:33;27.20;47.70
21891;DHT22;11110;52.386;16.940;2022-10-22T02:14:03;27.20;47.60
21891;DHT22;11110;52.386;16.940;2022-10-22T02:16:37;27.20;48.30
21891;DHT22;11110;52.386;16.940;2022-10-22T02:19:10;27.20;47.70
21891;DHT22;11110;52.386;16.940;2022-10-22T02:21:41;27.20;47.60
21891;DHT22;11110;52.386;16.940;2022-10-22T02:24:09;27.40;47.80
21891;DHT22;11110;52.386;16.940;2022-10-22T02:26:40;27.20;47.70
21891;DHT22;11110;52.386;16.940;2022-10-22T02:29:12;27.20;47.70
21891;DHT22;11110;52.386;16.940;2022-10-22T02:31:43;27.10;47.60
21891;DHT22;11110;52.386;16.940;2022-10-22T02:34:16;27.20;47.70
21891;DHT22;11110;52.386;16.940;2022-10-22T02:36:48;27.20;47.70
21891;DHT22;11110;52.386;16.940;2022-10-22T02:39:18;27.20;47.70
21891;DHT22;11110;52.386;16.940;2022-10-22T02:41:48;27.20;47.60
21891;DHT22;11110;52.386;16.940;2022-10-22T02:44:20;27.20;47.60
21891;DHT22;11110;52.386;16.940;2022-10-22T02:46:50;27.20;47.40
21891;DHT22;11110;52.386;16.940;2022-10-22T02:49:19;27.20;47.50
21891;DHT22;11110;52.386;16.940;2022-10-22T02:51:48;27.20;47.50
21891;DHT22;11110;52.386;16.940;2022-10-22T02:54:16;27.30;47.40
21891;DHT22;11110;52.386;16.940;2022-10-22T02:56:45;27.20;47.30
21891;DHT22;11110;52.386;16.940;2022-10-22T02:59:13;27.30;47.40
21891;DHT22;11110;52.386;16.940;2022-10-22T03:01:42;27.20;47.30
21891;DHT22;11110;52.386;16.940;2022-10-22T03:04:11;27.30;47.10
21891;DHT22;11110;52.386;16.940;2022-10-22T03:06:41;27.30;47.20
21891;DHT22;11110;52.386;16.940;2022-10-22T03:09:10;27.30;47.30
21891;DHT22;11110;52.386;16.940;2022-10-22T03:11:38;27.20;47.30
21891;DHT22;11110;52.386;16.940;2022-10-22T03:14:07;27.30;47.40
21891;DHT22;11110;52.386;16.940;2022-10-22T03:16:35;27.30;47.50
21891;DHT22;11110;52.386;16.940;2022-10-22T03:19:04;27.20;47.50
21891;DHT22;11110;52.386;16.940;2022-10-22T03:21:37;27.20;47.50
21891;DHT22;11110;52.386;16.940;2022-10-22T03:24:09;27.20;47.60
21891;DHT22;11110;52.386;16.940;2022-10-22T03:26:39;27.20;47.60
21891;DHT22;11110;52.386;16.940;2022-10-22T03:29:09;27.20;47.90
21891;DHT22;11110;52.386;16.940;2022-10-22T03:31:38;27.20;47.60
21891;DHT22;11110;52.386;16.940;2022-10-22T03:34:07;27.20;47.60
21891;DHT22;11110;52.386;16.940;2022-10-22T03:36:37;27.30;47.40
21891;DHT22;11110;52.386;16.940;2022-10-22T03:39:06;27.30;47.50
21891;DHT22;11110;52.386;16.940;2022-10-22T03:41:35;27.30;47.40
21891;DHT22;11110;52.386;16.940;2022-10-22T03:44:04;27.30;47.30
21891;DHT22;11110;52.386;16.940;2022-10-22T03:46:33;27.30;47.50
21891;DHT22;11110;52.386;16.940;2022-10-22T03:49:01;27.30;47.60
21891;DHT22;11110;52.386;16.940;2022-10-22T03:51:30;27.30;47.60
21891;DHT22;11110;52.386;16.940;2022-10-22T03:54:01;27.30;47.60
21891;DHT22;11110;52.386;16.940;2022-10-22T03:56:29;27.30;47.60
21891;DHT22;11110;52.386;16.940;2022-10-22T03:58:58;27.30;48.40
21891;DHT22;11110;52.386;16.940;2022-10-22T04:01:28;27.30;47.60
21891;DHT22;11110;52.386;16.940;2022-10-22T04:03:57;27.20;47.50
21891;DHT22;11110;52.386;16.940;2022-10-22T04:06:27;27.30;47.60
21891;DHT22;11110;52.386;16.940;2022-10-22T04:08:56;27.20;47.60
21891;DHT22;11110;52.386;16.940;2022-10-22T04:11:26;27.20;47.60
21891;DHT22;11110;52.386;16.940;2022-10-22T04:13:54;27.30;47.60
21891;DHT22;11110;52.386;16.940;2022-10-22T04:16:23;27.30;47.60
21891;DHT22;11110;52.386;16.940;2022-10-22T04:18:57;27.30;47.60
21891;DHT22;11110;52.386;16.940;2022-10-22T04:21:25;27.30;47.60
21891;DHT22;11110;52.386;16.940;2022-10-22T04:23:54;27.20;47.60
21891;DHT22;11110;52.386;16.940;2022-10-22T04:26:22;27.30;47.60
21891;DHT22;11110;52.386;16.940;2022-10-22T04:28:52;27.30;47.60
21891;DHT22;11110;52.386;16.940;2022-10-22T04:31:23;27.30;47.70
21891;DHT22;11110;52.386;16.940;2022-10-22T04:33:52;27.30;47.70
21891;DHT22;11110;52.386;16.940;2022-10-22T04:36:22;27.30;47.70
21891;DHT22;11110;52.386;16.940;2022-10-22T04:38:53;27.30;47.70
21891;DHT22;11110;52.386;16.940;2022-10-22T04:41:24;27.30;47.70
21891;DHT22;11110;52.386;16.940;2022-10-22T04:43:55;27.30;47.70
21891;DHT22;11110;52.386;16.940;2022-10-22T04:46:25;27.30;47.60
21891;DHT22;11110;52.386;16.940;2022-10-22T04:48:54;27.30;47.80
21891;DHT22;11110;52.386;16.940;2022-10-22T04:51:24;27.30;47.80
21891;DHT22;11110;52.386;16.940;2022-10-22T04:53:53;27.30;47.80
21891;DHT22;11110;52.386;16.940;2022-10-22T04:56:23;27.30;47.70
21891;DHT22;11110;52.386;16.940;2022-10-22T04:58:54;27.30;47.70
21891;DHT22;11110;52.386;16.940;2022-10-22T05:01:24;27.30;47.80
21891;DHT22;11110;52.386;16.940;2022-10-22T05:03:55;27.30;47.80
21891;DHT22;11110;52.386;16.940;2022-10-22T05:06:24;27.30;47.90
21891;DHT22;11110;52.386;16.940;2022-10-22T05:08:54;27.30;48.00
21891;DHT22;11110;52.386;16.940;2022-10-22T05:11:28;27.30;47.90
21891;DHT22;11110;52.386;16.940;2022-10-22T05:13:58;27.40;48.10
21891;DHT22;11110;52.386;16.940;2022-10-22T05:16:28;27.30;48.10
21891;DHT22;11110;52.386;16.940;2022-10-22T05:18:58;27.30;47.90
21891;DHT22;11110;52.386;16.940;2022-10-22T05:21:27;27.30;47.90
21891;DHT22;11110;52.386;16.940;2022-10-22T05:23:56;27.30;47.90
21891;DHT22;11110;52.386;16.940;2022-10-22T05:26:27;27.30;47.90
21891;DHT22;11110;52.386;16.940;2022-10-22T05:28:55;27.30;48.00
21891;DHT22;11110;52.386;16.940;2022-10-22T05:31:25;27.40;48.10
21891;DHT22;11110;52.386;16.940;2022-10-22T05:33:54;27.30;48.20
21891;DHT22;11110;52.386;16.940;2022-10-22T05:36:23;27.30;48.10
21891;DHT22;11110;52.386;16.940;2022-10-22T05:38:52;27.40;48.10
21891;DHT22;11110;52.386;16.940;2022-10-22T05:41:22;27.30;48.10
21891;DHT22;11110;52.386;16.940;2022-10-22T05:43:52;27.40;48.10
21891;DHT22;11110;52.386;16.940;2022-10-22T05:46:22;27.40;48.20
21891;DHT22;11110;52.386;16.940;2022-10-22T05:48:53;27.40;48.10
21891;DHT22;11110;52.386;16.940;2022-10-22T05:51:23;27.40;48.10
21891;DHT22;11110;52.386;16.940;2022-10-22T05:53:52;27.40;48.20
21891;DHT22;11110;52.386;16.940;2022-10-22T05:56:21;27.40;48.20
21891;DHT22;11110;52.386;16.940;2022-10-22T05:58:51;27.40;48.20
21891;DHT22;11110;52.386;16.940;2022-10-22T06:01:21;27.40;48.30
21891;DHT22;11110;52.386;16.940;2022-10-22T06:03:53;27.40;48.20
21891;DHT22;11110;52.386;16.940;2022-10-22T06:06:26;27.40;48.40
21891;DHT22;11110;52.386;16.940;2022-10-22T06:08:58;27.40;48.30
21891;DHT22;11110;52.386;16.940;2022-10-22T06:11:28;27.40;48.40
21891;DHT22;11110;52.386;16.940;2022-10-22T06:14:01;27.40;48.50
21891;DHT22;11110;52.386;16.940;2022-10-22T06:16:30;27.40;48.60
21891;DHT22;11110;52.386;16.940;2022-10-22T06:19:00;27.30;48.50
21891;DHT22;11110;52.386;16.940;2022-10-22T06:21:29;27.40;48.60
21891;DHT22;11110;52.386;16.940;2022-10-22T06:23:59;27.30;48.40
21891;DHT22;11110;52.386;16.940;2022-10-22T06:26:28;27.40;48.70
21891;DHT22;11110;52.386;16.940;2022-10-22T06:28:56;27.30;48.50
21891;DHT22;11110;52.386;16.940;2022-10-22T06:31:26;27.40;48.70
21891;DHT22;11110;52.386;16.940;2022-10-22T06:33:55;27.40;48.70
21891;DHT22;11110;52.386;16.940;2022-10-22T06:36:25;27.40;48.70
21891;DHT22;11110;52.386;16.940;2022-10-22T06:38:54;27.40;48.70
21891;DHT22;11110;52.386;16.940;2022-10-22T06:41:24;27.40;48.70
21891;DHT22;11110;52.386;16.940;2022-10-22T06:43:56;27.40;48.80
21891;DHT22;11110;52.386;16.940;2022-10-22T06:46:25;27.40;48.80
21891;DHT22;11110;52.386;16.940;2022-10-22T06:48:55;27.40;48.80
21891;DHT22;11110;52.386;16.940;2022-10-22T06:51:26;27.40;48.90
21891;DHT22;11110;52.386;16.940;2022-10-22T06:53:56;27.40;48.90
21891;DHT22;11110;52.386;16.940;2022-10-22T06:56:26;27.40;48.80
21891;DHT22;11110;52.386;16.940;2022-10-22T06:58:57;27.40;48.90
21891;DHT22;11110;52.386;16.940;2022-10-22T07:01:28;27.40;49.00
21891;DHT22;11110;52.386;16.940;2022-10-22T07:03:56;27.40;48.80
21891;DHT22;11110;52.386;16.940;2022-10-22T07:06:27;27.40;48.90
21891;DHT22;11110;52.386;16.940;2022-10-22T07:08:57;27.50;49.00
21891;DHT22;11110;52.386;16.940;2022-10-22T07:11:29;27.50;49.00
21891;DHT22;11110;52.386;16.940;2022-10-22T07:13:58;27.50;49.10
21891;DHT22;11110;52.386;16.940;2022-10-22T07:16:27;27.50;49.10
21891;DHT22;11110;52.386;16.940;2022-10-22T07:18:58;27.50;49.20
21891;DHT22;11110;52.386;16.940;2022-10-22T07:21:29;27.50;49.20
21891;DHT22;11110;52.386;16.940;2022-10-22T07:23:57;27.50;49.90
21891;DHT22;11110;52.386;16.940;2022-10-22T07:26:27;27.50;49.20
21891;DHT22;11110;52.386;16.940;2022-10-22T07:28:57;27.50;49.20
21891;DHT22;11110;52.386;16.940;2022-10-22T07:31:26;27.50;49.20
21891;DHT22;11110;52.386;16.940;2022-10-22T07:33:55;27.50;49.20
21891;DHT22;11110;52.386;16.940;2022-10-22T07:36:23;27.60;49.20
21891;DHT22;11110;52.386;16.940;2022-10-22T07:38:57;27.60;49.20
21891;DHT22;11110;52.386;16.940;2022-10-22T07:41:27;27.60;49.20
21891;DHT22;11110;52.386;16.940;2022-10-22T07:43:56;27.60;49.30
21891;DHT22;11110;52.386;16.940;2022-10-22T07:46:25;27.60;49.30
21891;DHT22;11110;52.386;16.940;2022-10-22T07:48:54;27.60;49.30
21891;DHT22;11110;52.386;16.940;2022-10-22T07:51:22;27.60;49.20
21891;DHT22;11110;52.386;16.940;2022-10-22T07:53:51;27.60;49.10
21891;DHT22;11110;52.386;16.940;2022-10-22T07:56:20;27.60;49.10
21891;DHT22;11110;52.386;16.940;2022-10-22T07:58:49;27.70;49.20
21891;DHT22;11110;52.386;16.940;2022-10-22T08:01:17;27.70;49.10
21891;DHT22;11110;52.386;16.940;2022-10-22T08:03:45;27.70;49.10
21891;DHT22;11110;52.386;16.940;2022-10-22T08:06:15;27.70;49.00
21891;DHT22;11110;52.386;16.940;2022-10-22T08:08:44;27.70;49.70
21891;DHT22;11110;52.386;16.940;2022-10-22T08:11:13;27.70;49.00
21891;DHT22;11110;52.386;16.940;2022-10-22T08:13:42;27.70;48.90
21891;DHT22;11110;52.386;16.940;2022-10-22T08:16:12;27.70;49.00
21891;DHT22;11110;52.386;16.940;2022-10-22T08:18:41;27.70;48.90
21891;DHT22;11110;52.386;16.940;2022-10-22T08:21:10;27.80;48.90
21891;DHT22;11110;52.386;16.940;2022-10-22T08:23:38;27.80;48.90
21891;DHT22;11110;52.386;16.940;2022-10-22T08:26:06;27.80;48.90
21891;DHT22;11110;52.386;16.940;2022-10-22T08:28:35;27.80;48.80
21891;DHT22;11110;52.386;16.940;2022-10-22T08:31:06;27.80;48.80
21891;DHT22;11110;52.386;16.940;2022-10-22T08:33:35;27.80;48.70
21891;DHT22;11110;52.386;16.940;2022-10-22T08:36:06;27.80;48.80
21891;DHT22;11110;52.386;16.940;2022-10-22T08:38:35;27.80;48.80
21891;DHT22;11110;52.386;16.940;2022-10-22T08:41:08;27.80;48.90
21891;DHT22;11110;52.386;16.940;2022-10-22T08:43:54;27.90;48.90
21891;DHT22;11110;52.386;16.940;2022-10-22T08:46:37;27.90;48.80
21891;DHT22;11110;52.386;16.940;2022-10-22T08:49:11;27.90;49.00
21891;DHT22;11110;52.386;16.940;2022-10-22T08:51:44;27.90;49.00
21891;DHT22;11110;52.386;16.940;2022-10-22T08:54:18;27.80;48.90
21891;DHT22;11110;52.386;16.940;2022-10-22T08:56:56;27.90;49.00
21891;DHT22;11110;52.386;16.940;2022-10-22T08:59:28;27.90;49.00
21891;DHT22;11110;52.386;16.940;2022-10-22T09:02:07;27.90;49.20
21891;DHT22;11110;52.386;16.940;2022-10-22T09:04:44;27.90;49.10
21891;DHT22;11110;52.386;16.940;2022-10-22T09:07:15;27.90;49.10
21891;DHT22;11110;52.386;16.940;2022-10-22T09:09:48;27.90;49.10
21891;DHT22;11110;52.386;16.940;2022-10-22T09:12:26;28.00;49.10
21891;DHT22;11110;52.386;16.940;2022-10-22T09:14:55;28.00;49.10
21891;DHT22;11110;52.386;16.940;2022-10-22T09:17:31;28.00;49.20
21891;DHT22;11110;52.386;16.940;2022-10-22T09:20:08;28.10;49.70
21891;DHT22;11110;52.386;16.940;2022-10-22T09:22:43;28.00;49.60
21891;DHT22;11110;52.386;16.940;2022-10-22T09:25:18;27.90;49.60
21891;DHT22;11110;52.386;16.940;2022-10-22T09:27:47;27.90;49.70
21891;DHT22;11110;52.386;16.940;2022-10-22T09:30:18;27.80;49.80
21891;DHT22;11110;52.386;16.940;2022-10-22T09:32:50;27.80;50.00
21891;DHT22;11110;52.386;16.940;2022-10-22T09:35:22;27.80;50.10
21891;DHT22;11110;52.386;16.940;2022-10-22T09:37:53;27.70;50.10
21891;DHT22;11110;52.386;16.940;2022-10-22T09:40:22;27.70;50.20
21891;DHT22;11110;52.386;16.940;2022-10-22T09:42:51;27.70;50.40
21891;DHT22;11110;52.386;16.940;2022-10-22T09:45:22;27.70;50.40
21891;DHT22;11110;52.386;16.940;2022-10-22T09:48:03;27.70;50.40
21891;DHT22;11110;52.386;16.940;2022-10-22T09:50:46;27.70;50.50
21891;DHT22;11110;52.386;16.940;2022-10-22T09:53:19;27.60;50.70
21891;DHT22;11110;52.386;16.940;2022-10-22T09:55:55;27.70;50.80
21891;DHT22;11110;52.386;16.940;2022-10-22T09:58:25;27.60;51.00
21891;DHT22;11110;52.386;16.940;2022-10-22T10:00:57;27.60;51.10
21891;DHT22;11110;52.386;16.940;2022-10-22T10:03:30;27.70;51.10
21891;DHT22;11110;52.386;16.940;2022-10-22T10:06:00;27.70;51.10
21891;DHT22;11110;52.386;16.940;2022-10-22T10:08:32;27.70;51.10
21891;DHT22;11110;52.386;16.940;2022-10-22T10:11:06;27.70;51.00
21891;DHT22;11110;52.386;16.940;2022-10-22T10:13:45;27.70;50.80
21891;DHT22;11110;52.386;16.940;2022-10-22T10:16:28;27.70;50.70
21891;DHT22;11110;52.386;16.940;2022-10-22T10:19:12;27.70;50.30
21891;DHT22;11110;52.386;16.940;2022-10-22T10:21:50;27.70;50.20
21891;DHT22;11110;52.386;16.940;2022-10-22T10:24:27;27.70;50.40
21891;DHT22;11110;52.386;16.940;2022-10-22T10:27:01;27.70;50.40
21891;DHT22;11110;52.386;16.940;2022-10-22T10:29:46;27.70;50.30
21891;DHT22;11110;52.386;16.940;2022-10-22T10:32:32;27.70;50.20
21891;DHT22;11110;52.386;16.940;2022-10-22T10:35:14;27.70;50.20
21891;DHT22;11110;52.386;16.940;2022-10-22T10:37:50;27.60;50.20
21891;DHT22;11110;52.386;16.940;2022-10-22T10:40:33;27.60;50.30
21891;DHT22;11110;52.386;16.940;2022-10-22T10:43:09;27.60;50.40
21891;DHT22;11110;52.386;16.940;2022-10-22T10:45:48;27.60;50.40
21891;DHT22;11110;52.386;16.940;2022-10-22T10:48:39;27.60;50.30
21891;DHT22;11110;52.386;16.940;2022-10-22T10:51:22;27.60;50.40
21891;DHT22;11110;52.386;16.940;2022-10-22T10:54:12;27.60;50.40
21891;DHT22;11110;52.386;16.940;2022-10-22T10:56:46;27.60;50.30
21891;DHT22;11110;52.386;16.940;2022-10-22T10:59:24;27.50;50.40
21891;DHT22;11110;52.386;16.940;2022-10-22T11:02:12;27.50;50.50
21891;DHT22;11110;52.386;16.940;2022-10-22T11:05:18;27.60;50.50
21891;DHT22;11110;52.386;16.940;2022-10-22T11:07:54;27.50;50.40
21891;DHT22;11110;52.386;16.940;2022-10-22T11:10:29;27.50;50.50
21891;DHT22;11110;52.386;16.940;2022-10-22T11:13:05;27.50;50.50
21891;DHT22;11110;52.386;16.940;2022-10-22T11:15:37;27.60;50.60
21891;DHT22;11110;52.386;16.940;2022-10-22T11:18:13;27.50;50.60
21891;DHT22;11110;52.386;16.940;2022-10-22T11:20:51;27.60;50.60
21891;DHT22;11110;52.386;16.940;2022-10-22T11:23:27;27.60;50.70
21891;DHT22;11110;52.386;16.940;2022-10-22T11:25:58;27.60;50.60
21891;DHT22;11110;52.386;16.940;2022-10-22T11:28:32;27.60;50.60
21891;DHT22;11110;52.386;16.940;2022-10-22T11:31:02;27.70;50.60
21891;DHT22;11110;52.386;16.940;2022-10-22T11:33:36;27.60;50.60
21891;DHT22;11110;52.386;16.940;2022-10-22T11:36:10;27.70;50.60
21891;DHT22;11110;52.386;16.940;2022-10-22T11:38:40;27.60;50.50
21891;DHT22;11110;52.386;16.940;2022-10-22T11:41:12;27.70;50.50
21891;DHT22;11110;52.386;16.940;2022-10-22T11:43:55;27.70;50.50
21891;DHT22;11110;52.386;16.940;2022-10-22T11:46:30;27.70;50.60
21891;DHT22;11110;52.386;16.940;2022-10-22T11:49:04;27.70;50.70
21891;DHT22;11110;52.386;16.940;2022-10-22T11:51:43;27.70;50.60
21891;DHT22;11110;52.386;16.940;2022-10-22T11:54:30;27.60;50.40
21891;DHT22;11110;52.386;16.940;2022-10-22T11:57:17;27.60;50.40
21891;DHT22;11110;52.386;16.940;2022-10-22T11:59:51;27.60;50.50
21891;DHT22;11110;52.386;16.940;2022-10-22T12:05:29;27.60;50.70
21891;DHT22;11110;52.386;16.940;2022-10-22T12:08:11;27.60;50.90
21891;DHT22;11110;52.386;16.940;2022-10-22T12:13:55;27.60;51.10
21891;DHT22;11110;52.386;16.940;2022-10-22T12:16:26;27.50;51.00
21891;DHT22;11110;52.386;16.940;2022-10-22T12:19:16;27.50;51.20
21891;DHT22;11110;52.386;16.940;2022-10-22T12:21:47;27.50;51.30
21891;DHT22;11110;52.386;16.940;2022-10-22T12:24:19;27.40;51.20
21891;DHT22;11110;52.386;16.940;2022-10-22T12:26:49;27.60;51.30
21891;DHT22;11110;52.386;16.940;2022-10-22T12:29:20;27.40;51.40
21891;DHT22;11110;52.386;16.940;2022-10-22T12:31:52;27.40;51.50
21891;DHT22;11110;52.386;16.940;2022-10-22T12:34:22;27.50;51.60
21891;DHT22;11110;52.386;16.940;2022-10-22T12:36:52;27.40;51.50
21891;DHT22;11110;52.386;16.940;2022-10-22T12:39:24;27.50;51.50
21891;DHT22;11110;52.386;16.940;2022-10-22T12:41:54;27.50;51.40
21891;DHT22;11110;52.386;16.940;2022-10-22T12:44:22;27.50;51.50
21891;DHT22;11110;52.386;16.940;2022-10-22T12:46:51;27.50;51.50
21891;DHT22;11110;52.386;16.940;2022-10-22T12:49:30;27.50;51.50
21891;DHT22;11110;52.386;16.940;2022-10-22T12:52:01;27.50;51.50
21891;DHT22;11110;52.386;16.940;2022-10-22T12:54:36;27.50;51.50
21891;DHT22;11110;52.386;16.940;2022-10-22T12:57:11;27.40;51.40
21891;DHT22;11110;52.386;16.940;2022-10-22T12:59:41;27.50;51.60
21891;DHT22;11110;52.386;16.940;2022-10-22T13:02:18;27.50;51.70
21891;DHT22;11110;52.386;16.940;2022-10-22T13:05:18;27.50;51.70
21891;DHT22;11110;52.386;16.940;2022-10-22T13:07:49;27.50;51.60
21891;DHT22;11110;52.386;16.940;2022-10-22T13:10:23;27.50;51.80
21891;DHT22;11110;52.386;16.940;2022-10-22T13:12:56;27.50;51.70
21891;DHT22;11110;52.386;16.940;2022-10-22T13:15:37;27.50;51.70
21891;DHT22;11110;52.386;16.940;2022-10-22T13:18:15;27.60;51.90
21891;DHT22;11110;52.386;16.940;2022-10-22T13:20:54;27.60;52.60
21891;DHT22;11110;52.386;16.940;2022-10-22T13:23:25;27.70;52.20
21891;DHT22;11110;52.386;16.940;2022-10-22T13:25:59;27.60;51.50
21891;DHT22;11110;52.386;16.940;2022-10-22T13:28:29;27.60;51.40
21891;DHT22;11110;52.386;16.940;2022-10-22T13:31:00;27.60;51.30
21891;DHT22;11110;52.386;16.940;2022-10-22T13:33:32;27.60;51.50
21891;DHT22;11110;52.386;16.940;2022-10-22T13:36:01;27.60;51.60
21891;DHT22;11110;52.386;16.940;2022-10-22T13:38:31;27.60;51.60
21891;DHT22;11110;52.386;16.940;2022-10-22T13:40:59;27.60;51.70
21891;DHT22;11110;52.386;16.940;2022-10-22T13:43:30;27.50;51.60
21891;DHT22;11110;52.386;16.940;2022-10-22T13:45:59;27.50;51.60
21891;DHT22;11110;52.386;16.940;2022-10-22T13:48:28;27.50;51.60
21891;DHT22;11110;52.386;16.940;2022-10-22T13:50:57;27.50;51.70
21891;DHT22;11110;52.386;16.940;2022-10-22T13:53:27;27.50;51.80
21891;DHT22;11110;52.386;16.940;2022-10-22T13:55:55;27.50;51.90
21891;DHT22;11110;52.386;16.940;2022-10-22T13:58:24;27.50;51.70
21891;DHT22;11110;52.386;16.940;2022-10-22T14:00:55;27.50;51.80
21891;DHT22;11110;52.386;16.940;2022-10-22T14:03:28;27.50;51.70
21891;DHT22;11110;52.386;16.940;2022-10-22T14:05:56;27.60;51.80
21891;DHT22;11110;52.386;16.940;2022-10-22T14:08:26;27.60;51.70
21891;DHT22;11110;52.386;16.940;2022-10-22T14:10:55;27.60;51.60
21891;DHT22;11110;52.386;16.940;2022-10-22T14:13:23;27.60;51.60
21891;DHT22;11110;52.386;16.940;2022-10-22T14:15:54;27.60;51.60
21891;DHT22;11110;52.386;16.940;2022-10-22T14:18:25;27.60;51.80
21891;DHT22;11110;52.386;16.940;2022-10-22T14:20:56;27.60;51.60
21891;DHT22;11110;52.386;16.940;2022-10-22T14:23:28;27.60;51.70
21891;DHT22;11110;52.386;16.940;2022-10-22T14:25:58;27.60;51.90
21891;DHT22;11110;52.386;16.940;2022-10-22T14:28:27;27.60;51.80
21891;DHT22;11110;52.386;16.940;2022-10-22T14:30:59;27.70;51.80
21891;DHT22;11110;52.386;16.940;2022-10-22T14:33:30;27.50;51.80
21891;DHT22;11110;52.386;16.940;2022-10-22T14:35:59;27.60;52.00
21891;DHT22;11110;52.386;16.940;2022-10-22T14:38:28;27.50;51.90
21891;DHT22;11110;52.386;16.940;2022-10-22T14:40:57;27.50;52.20
21891;DHT22;11110;52.386;16.940;2022-10-22T14:43:28;27.50;52.10
21891;DHT22;11110;52.386;16.940;2022-10-22T14:45:58;27.50;52.00
21891;DHT22;11110;52.386;16.940;2022-10-22T14:48:27;27.60;52.10
21891;DHT22;11110;52.386;16.940;2022-10-22T14:50:55;27.60;52.20
21891;DHT22;11110;52.386;16.940;2022-10-22T14:53:24;27.60;52.20
21891;DHT22;11110;52.386;16.940;2022-10-22T14:55:52;27.60;52.30
21891;DHT22;11110;52.386;16.940;2022-10-22T14:58:24;27.60;52.20
21891;DHT22;11110;52.386;16.940;2022-10-22T15:00:53;27.60;52.20
21891;DHT22;11110;52.386;16.940;2022-10-22T15:03:23;27.70;52.20
21891;DHT22;11110;52.386;16.940;2022-10-22T15:05:51;27.70;52.20
21891;DHT22;11110;52.386;16.940;2022-10-22T15:08:22;27.70;52.30
21891;DHT22;11110;52.386;16.940;2022-10-22T15:10:58;27.70;52.20
21891;DHT22;11110;52.386;16.940;2022-10-22T15:13:28;27.80;52.10
21891;DHT22;11110;52.386;16.940;2022-10-22T15:15:57;27.70;52.10
21891;DHT22;11110;52.386;16.940;2022-10-22T15:18:27;27.70;52.00
21891;DHT22;11110;52.386;16.940;2022-10-22T15:20:58;27.70;52.10
21891;DHT22;11110;52.386;16.940;2022-10-22T15:23:27;27.80;52.20
21891;DHT22;11110;52.386;16.940;2022-10-22T15:25:56;27.80;51.90
21891;DHT22;11110;52.386;16.940;2022-10-22T15:28:25;27.80;52.20
21891;DHT22;11110;52.386;16.940;2022-10-22T15:30:55;27.70;52.10
21891;DHT22;11110;52.386;16.940;2022-10-22T15:33:24;27.80;52.70
21891;DHT22;11110;52.386;16.940;2022-10-22T15:35:55;27.80;52.30
21891;DHT22;11110;52.386;16.940;2022-10-22T15:38:26;27.80;52.20
21891;DHT22;11110;52.386;16.940;2022-10-22T15:41:00;27.70;52.10
21891;DHT22;11110;52.386;16.940;2022-10-22T15:43:32;27.60;52.30
21891;DHT22;11110;52.386;16.940;2022-10-22T15:46:11;27.60;52.50
21891;DHT22;11110;52.386;16.940;2022-10-22T15:48:40;27.70;52.40
21891;DHT22;11110;52.386;16.940;2022-10-22T15:51:12;27.60;53.10
21891;DHT22;11110;52.386;16.940;2022-10-22T15:53:41;27.70;52.50